sensor_id;sensor_type;location;lat;lon;timestamp;pressure;altitude;pressure_sealevel;temperature;humidity
59043;BME280;44826;51.596;5.624;2023-04-05T00:00:35;102392.06;;;2.48;69.56
59043;BME280;44826;51.596;5.624;2023-04-05T00:03:00;102388.41;;;2.41;69.17
59043;BME280;44826;51.596;5.624;2023-04-05T00:05:27;102386.66;;;2.40;69.01
59043;BME280;44826;51.596;5.624;2023-04-05T00:07:56;102390.09;;;2.39;69.36
59043;BME280;44826;51.596;5.624;2023-04-05T00:10:22;102389.03;;;2.34;68.62
59043;BME280;44826;51.596;5.624;2023-04-05T00:12:47;102393.25;;;2.32;68.78
59043;BME280;44826;51.596;5.624;2023-04-05T00:15:12;102382.66;;;2.22;69.96
59043;BME280;44826;51.596;5.624;2023-04-05T00:17:38;102382.47;;;2.16;68.91
59043;BME280;44826;51.596;5.624;2023-04-05T00:20:03;102390.91;;;2.13;68.59
59043;BME280;44826;51.596;5.624;2023-04-05T00:22:32;102384.69;;;2.07;69.10
59043;BME280;44826;51.596;5.624;2023-04-05T00:25:00;102374.44;;;2.07;68.84
59043;BME280;44826;51.596;5.624;2023-04-05T00:27:26;102381.06;;;2.00;69.10
59043;BME280;44826;51.596;5.624;2023-04-05T00:29:51;102382.66;;;1.96;69.11
59043;BME280;44826;51.596;5.624;2023-04-05T00:32:16;102376.47;;;1.91;69.73
59043;BME280;44826;51.596;5.624;2023-04-05T00:34:41;102382.41;;;1.90;70.20
59043;BME280;44826;51.596;5.624;2023-04-05T00:37:07;102373.78;;;1.88;69.75
59043;BME280;44826;51.596;5.624;2023-04-05T00:39:32;102371.16;;;1.85;69.10
59043;BME280;44826;51.596;5.624;2023-04-05T00:41:57;102364.16;;;1.81;69.86
59043;BME280;44826;51.596;5.624;2023-04-05T00:44:23;102369.97;;;1.77;70.09
59043;BME280;44826;51.596;5.624;2023-04-05T00:46:48;102374.16;;;1.73;69.83
59043;BME280;44826;51.596;5.624;2023-04-05T00:49:13;102370.53;;;1.68;70.28
59043;BME280;44826;51.596;5.624;2023-04-05T00:51:39;102369.56;;;1.64;69.63
59043;BME280;44826;51.596;5.624;2023-04-05T00:54:04;102366.09;;;1.64;69.66
59043;BME280;44826;51.596;5.624;2023-04-05T00:56:31;102360.81;;;1.59;69.70
59043;BME280;44826;51.596;5.624;2023-04-05T00:58:56;102367.56;;;1.57;70.00
59043;BME280;44826;51.596;5.624;2023-04-05T01:01:24;102364.72;;;1.49;69.98
59043;BME280;44826;51.596;5.624;2023-04-05T01:03:58;102362.88;;;1.45;70.74
59043;BME280;44826;51.596;5.624;2023-04-05T01:06:43;102360.38;;;1.47;69.65
59043;BME280;44826;51.596;5.624;2023-04-05T01:09:28;102362.00;;;1.45;71.36
59043;BME280;44826;51.596;5.624;2023-04-05T01:11:56;102357.53;;;1.39;71.55
59043;BME280;44826;51.596;5.624;2023-04-05T01:14:22;102360.88;;;1.36;70.78
59043;BME280;44826;51.596;5.624;2023-04-05T01:16:48;102359.03;;;1.34;70.97
59043;BME280;44826;51.596;5.624;2023-04-05T01:19:27;102356.44;;;1.32;71.50
59043;BME280;44826;51.596;5.624;2023-04-05T01:30:36;102359.56;;;1.25;71.13
59043;BME280;44826;51.596;5.624;2023-04-05T01:35:52;102345.69;;;1.20;70.63
59043;BME280;44826;51.596;5.624;2023-04-05T01:38:22;102348.09;;;1.15;71.07
59043;BME280;44826;51.596;5.624;2023-04-05T01:40:49;102343.75;;;1.13;71.15
59043;BME280;44826;51.596;5.624;2023-04-05T01:43:16;102350.50;;;1.11;71.80
59043;BME280;44826;51.596;5.624;2023-04-05T01:45:42;102343.63;;;1.10;72.42
59043;BME280;44826;51.596;5.624;2023-04-05T01:48:08;102347.00;;;1.09;71.46
59043;BME280;44826;51.596;5.624;2023-04-05T01:50:34;102340.13;;;1.08;71.41
59043;BME280;44826;51.596;5.624;2023-04-05T01:52:59;102346.88;;;1.05;71.61
59043;BME280;44826;51.596;5.624;2023-04-05T01:55:25;102337.50;;;1.06;72.08
59043;BME280;44826;51.596;5.624;2023-04-05T01:57:51;102334.88;;;1.04;71.91
59043;BME280;44826;51.596;5.624;2023-04-05T02:00:16;102329.66;;;1.01;71.77
59043;BME280;44826;51.596;5.624;2023-04-05T02:02:42;102332.09;;;0.98;71.00
59043;BME280;44826;51.596;5.624;2023-04-05T02:05:07;102335.34;;;0.94;70.73
59043;BME280;44826;51.596;5.624;2023-04-05T02:07:32;102333.47;;;0.90;70.23
59043;BME280;44826;51.596;5.624;2023-04-05T02:09:58;102335.91;;;0.87;70.98
59043;BME280;44826;51.596;5.624;2023-04-05T02:12:23;102332.34;;;0.82;70.81
59043;BME280;44826;51.596;5.624;2023-04-05T02:14:49;102329.53;;;0.75;70.89
59043;BME280;44826;51.596;5.624;2023-04-05T02:17:15;102333.66;;;0.72;71.03
59043;BME280;44826;51.596;5.624;2023-04-05T02:19:41;102327.66;;;0.71;72.33
59043;BME280;44826;51.596;5.624;2023-04-05T02:22:10;102325.16;;;0.73;72.30
59043;BME280;44826;51.596;5.624;2023-04-05T02:24:36;102320.78;;;0.70;72.19
59043;BME280;44826;51.596;5.624;2023-04-05T02:27:01;102323.28;;;0.69;71.16
59043;BME280;44826;51.596;5.624;2023-04-05T02:29:26;102318.97;;;0.68;72.14
59043;BME280;44826;51.596;5.624;2023-04-05T02:31:52;102324.06;;;0.66;72.32
59043;BME280;44826;51.596;5.624;2023-04-05T02:34:17;102321.38;;;0.63;72.26
59043;BME280;44826;51.596;5.624;2023-04-05T02:36:43;102327.22;;;0.60;72.27
59043;BME280;44826;51.596;5.624;2023-04-05T02:39:08;102323.75;;;0.58;72.38
59043;BME280;44826;51.596;5.624;2023-04-05T02:41:35;102320.25;;;0.56;73.20
59043;BME280;44826;51.596;5.624;2023-04-05T02:44:00;102330.41;;;0.55;72.83
59043;BME280;44826;51.596;5.624;2023-04-05T02:46:25;102322.69;;;0.53;73.18
59043;BME280;44826;51.596;5.624;2023-04-05T02:48:51;102316.56;;;0.50;73.14
59043;BME280;44826;51.596;5.624;2023-04-05T02:51:16;102314.00;;;0.50;73.02
59043;BME280;44826;51.596;5.624;2023-04-05T02:53:41;102308.78;;;0.47;72.77
59043;BME280;44826;51.596;5.624;2023-04-05T02:56:09;102310.44;;;0.46;73.46
59043;BME280;44826;51.596;5.624;2023-04-05T02:58:36;102305.28;;;0.44;73.19
59043;BME280;44826;51.596;5.624;2023-04-05T03:01:01;102298.34;;;0.42;73.12
59043;BME280;44826;51.596;5.624;2023-04-05T03:03:31;102307.66;;;0.40;73.62
59043;BME280;44826;51.596;5.624;2023-04-05T03:06:06;102301.66;;;0.39;72.85
59043;BME280;44826;51.596;5.624;2023-04-05T03:08:37;102302.31;;;0.35;72.33
59043;BME280;44826;51.596;5.624;2023-04-05T03:11:06;102296.31;;;0.33;72.37
59043;BME280;44826;51.596;5.624;2023-04-05T03:13:32;102303.03;;;0.31;73.01
59043;BME280;44826;51.596;5.624;2023-04-05T03:15:57;102301.28;;;0.30;73.32
59043;BME280;44826;51.596;5.624;2023-04-05T03:18:22;102287.56;;;0.28;73.33
59043;BME280;44826;51.596;5.624;2023-04-05T03:20:50;102291.72;;;0.26;73.01
59043;BME280;44826;51.596;5.624;2023-04-05T03:23:21;102281.44;;;0.24;72.86
59043;BME280;44826;51.596;5.624;2023-04-05T03:26:02;102285.53;;;0.21;72.20
59043;BME280;44826;51.596;5.624;2023-04-05T03:28:28;102286.25;;;0.17;71.94
59043;BME280;44826;51.596;5.624;2023-04-05T03:30:54;102283.69;;;0.17;73.35
59043;BME280;44826;51.596;5.624;2023-04-05T03:33:20;102287.88;;;0.14;72.91
59043;BME280;44826;51.596;5.624;2023-04-05T03:35:46;102293.66;;;0.10;73.02
59043;BME280;44826;51.596;5.624;2023-04-05T03:38:11;102290.16;;;0.08;73.62
59043;BME280;44826;51.596;5.624;2023-04-05T03:40:37;102295.16;;;0.05;73.92
59043;BME280;44826;51.596;5.624;2023-04-05T03:43:03;102288.28;;;0.04;74.17
59043;BME280;44826;51.596;5.624;2023-04-05T03:45:28;102286.50;;;0.02;73.72
59043;BME280;44826;51.596;5.624;2023-04-05T03:47:54;102288.06;;;-0.02;73.36
59043;BME280;44826;51.596;5.624;2023-04-05T03:50:20;102282.81;;;-0.05;73.36
59043;BME280;44826;51.596;5.624;2023-04-05T03:52:45;102277.59;;;-0.07;73.01
59043;BME280;44826;51.596;5.624;2023-04-05T03:55:11;102284.28;;;-0.10;73.23
59043;BME280;44826;51.596;5.624;2023-04-05T03:57:38;102276.44;;;-0.15;73.69
59043;BME280;44826;51.596;5.624;2023-04-05T04:00:04;102276.28;;;-0.18;73.70
59043;BME280;44826;51.596;5.624;2023-04-05T04:02:42;102266.81;;;-0.21;73.61
59043;BME280;44826;51.596;5.624;2023-04-05T04:05:09;102265.88;;;-0.23;73.61
59043;BME280;44826;51.596;5.624;2023-04-05T04:07:35;102269.25;;;-0.24;73.95
59043;BME280;44826;51.596;5.624;2023-04-05T04:10:00;102259.81;;;-0.25;74.64
59043;BME280;44826;51.596;5.624;2023-04-05T04:12:25;102261.44;;;-0.27;74.26
59043;BME280;44826;51.596;5.624;2023-04-05T04:14:51;102266.56;;;-0.27;74.22
59043;BME280;44826;51.596;5.624;2023-04-05T04:17:30;102260.59;;;-0.27;73.71
59043;BME280;44826;51.596;5.624;2023-04-05T04:19:56;102263.94;;;-0.28;74.68
59043;BME280;44826;51.596;5.624;2023-04-05T04:22:23;102263.06;;;-0.29;73.58
59043;BME280;44826;51.596;5.624;2023-04-05T04:24:53;102262.19;;;-0.29;73.36
59043;BME280;44826;51.596;5.624;2023-04-05T04:27:19;102266.28;;;-0.33;73.26
59043;BME280;44826;51.596;5.624;2023-04-05T04:29:45;102263.63;;;-0.36;73.03
59043;BME280;44826;51.596;5.624;2023-04-05T04:32:13;102264.28;;;-0.40;73.49
59043;BME280;44826;51.596;5.624;2023-04-05T04:34:39;102266.72;;;-0.43;73.49
59043;BME280;44826;51.596;5.624;2023-04-05T04:37:13;102267.53;;;-0.44;73.30
59043;BME280;44826;51.596;5.624;2023-04-05T04:39:44;102258.91;;;-0.47;74.16
59043;BME280;44826;51.596;5.624;2023-04-05T04:42:10;102267.38;;;-0.48;73.78
59043;BME280;44826;51.596;5.624;2023-04-05T04:44:36;102259.66;;;-0.49;74.82
59043;BME280;44826;51.596;5.624;2023-04-05T04:47:01;102261.28;;;-0.51;75.23
59043;BME280;44826;51.596;5.624;2023-04-05T04:49:26;102266.38;;;-0.51;75.68
59043;BME280;44826;51.596;5.624;2023-04-05T04:51:52;102263.88;;;-0.50;75.50
59043;BME280;44826;51.596;5.624;2023-04-05T04:54:17;102262.13;;;-0.51;76.53
59043;BME280;44826;51.596;5.624;2023-04-05T04:56:45;102262.97;;;-0.52;75.97
59043;BME280;44826;51.596;5.624;2023-04-05T04:59:10;102265.53;;;-0.52;75.27
59043;BME280;44826;51.596;5.624;2023-04-05T05:01:35;102269.69;;;-0.54;75.02
59043;BME280;44826;51.596;5.624;2023-04-05T05:04:02;102261.94;;;-0.55;75.61
59043;BME280;44826;51.596;5.624;2023-04-05T05:06:28;102268.75;;;-0.56;75.44
59043;BME280;44826;51.596;5.624;2023-04-05T05:08:54;102267.94;;;-0.55;74.92
59043;BME280;44826;51.596;5.624;2023-04-05T05:11:20;102268.75;;;-0.56;75.24
59043;BME280;44826;51.596;5.624;2023-04-05T05:13:45;102260.19;;;-0.56;75.97
59043;BME280;44826;51.596;5.624;2023-04-05T05:16:11;102259.38;;;-0.55;74.78
59043;BME280;44826;51.596;5.624;2023-04-05T05:18:36;102255.97;;;-0.56;75.94
59043;BME280;44826;51.596;5.624;2023-04-05T05:21:02;102259.38;;;-0.55;75.73
59043;BME280;44826;51.596;5.624;2023-04-05T05:23:27;102259.47;;;-0.54;75.43
59043;BME280;44826;51.596;5.624;2023-04-05T05:25:58;102259.56;;;-0.51;74.34
59043;BME280;44826;51.596;5.624;2023-04-05T05:28:25;102262.22;;;-0.49;72.72
59043;BME280;44826;51.596;5.624;2023-04-05T05:30:50;102272.31;;;-0.52;75.51
59043;BME280;44826;51.596;5.624;2023-04-05T05:33:15;102268.13;;;-0.50;76.24
59043;BME280;44826;51.596;5.624;2023-04-05T05:35:42;102260.53;;;-0.49;76.29
59043;BME280;44826;51.596;5.624;2023-04-05T05:38:07;102264.03;;;-0.47;76.28
59043;BME280;44826;51.596;5.624;2023-04-05T05:40:33;102258.91;;;-0.47;76.36
59043;BME280;44826;51.596;5.624;2023-04-05T05:42:58;102254.75;;;-0.44;75.91
59043;BME280;44826;51.596;5.624;2023-04-05T05:45:23;102255.81;;;-0.39;75.56
59043;BME280;44826;51.596;5.624;2023-04-05T05:47:49;102254.22;;;-0.37;75.25
59043;BME280;44826;51.596;5.624;2023-04-05T05:50:14;102257.56;;;-0.38;76.54
59043;BME280;44826;51.596;5.624;2023-04-05T05:52:41;102257.72;;;-0.35;76.72
59043;BME280;44826;51.596;5.624;2023-04-05T05:55:06;102260.44;;;-0.31;76.12
59043;BME280;44826;51.596;5.624;2023-04-05T05:57:33;102259.69;;;-0.28;76.53
59043;BME280;44826;51.596;5.624;2023-04-05T05:59:58;102259.03;;;-0.24;76.29
59043;BME280;44826;51.596;5.624;2023-04-05T06:02:24;102263.50;;;-0.18;77.31
59043;BME280;44826;51.596;5.624;2023-04-05T06:04:50;102261.09;;;-0.15;77.72
59043;BME280;44826;51.596;5.624;2023-04-05T06:07:15;102262.06;;;-0.11;77.68
59043;BME280;44826;51.596;5.624;2023-04-05T06:09:40;102259.69;;;-0.07;77.57
59043;BME280;44826;51.596;5.624;2023-04-05T06:12:06;102264.13;;;-0.03;77.56
59043;BME280;44826;51.596;5.624;2023-04-05T06:14:31;102260.94;;;0.03;77.90
59043;BME280;44826;51.596;5.624;2023-04-05T06:16:56;102261.09;;;0.06;78.45
59043;BME280;44826;51.596;5.624;2023-04-05T06:19:22;102258.69;;;0.11;77.50
59043;BME280;44826;51.596;5.624;2023-04-05T06:21:47;102268.34;;;0.17;78.06
59043;BME280;44826;51.596;5.624;2023-04-05T06:24:12;102266.00;;;0.23;77.88
59043;BME280;44826;51.596;5.624;2023-04-05T06:26:37;102268.81;;;0.29;78.52
59043;BME280;44826;51.596;5.624;2023-04-05T06:29:03;102270.78;;;0.36;77.48
59043;BME280;44826;51.596;5.624;2023-04-05T06:31:33;102272.75;;;0.42;77.76
59043;BME280;44826;51.596;5.624;2023-04-05T06:33:59;102271.31;;;0.49;77.06
59043;BME280;44826;51.596;5.624;2023-04-05T06:36:25;102270.66;;;0.54;76.95
59043;BME280;44826;51.596;5.624;2023-04-05T06:38:51;102272.56;;;0.60;77.58
59043;BME280;44826;51.596;5.624;2023-04-05T06:41:16;102260.88;;;0.67;77.48
59043;BME280;44826;51.596;5.624;2023-04-05T06:43:41;102270.59;;;0.75;76.76
59043;BME280;44826;51.596;5.624;2023-04-05T06:46:06;102258.97;;;0.84;76.49
59043;BME280;44826;51.596;5.624;2023-04-05T06:48:35;102266.13;;;0.93;75.95
59043;BME280;44826;51.596;5.624;2023-04-05T06:51:01;102264.66;;;0.99;76.23
59043;BME280;44826;51.596;5.624;2023-04-05T06:53:28;102263.25;;;1.08;74.90
59043;BME280;44826;51.596;5.624;2023-04-05T06:55:57;102261.88;;;1.17;74.80
59043;BME280;44826;51.596;5.624;2023-04-05T06:58:23;102273.34;;;1.27;75.04
59043;BME280;44826;51.596;5.624;2023-04-05T07:00:49;102271.13;;;1.36;74.22
59043;BME280;44826;51.596;5.624;2023-04-05T07:03:15;102266.19;;;1.43;74.43
59043;BME280;44826;51.596;5.624;2023-04-05T07:05:49;102266.53;;;1.52;74.41
59043;BME280;44826;51.596;5.624;2023-04-05T07:08:16;102273.59;;;1.59;73.14
59043;BME280;44826;51.596;5.624;2023-04-05T07:10:41;102272.19;;;1.67;72.45
59043;BME280;44826;51.596;5.624;2023-04-05T07:13:06;102267.25;;;1.74;72.19
59043;BME280;44826;51.596;5.624;2023-04-05T07:15:31;102270.97;;;1.82;72.62
59043;BME280;44826;51.596;5.624;2023-04-05T07:17:57;102266.84;;;1.87;72.49
59043;BME280;44826;51.596;5.624;2023-04-05T07:20:22;102271.34;;;1.94;71.48
59043;BME280;44826;51.596;5.624;2023-04-05T07:22:47;102269.81;;;2.00;71.39
59043;BME280;44826;51.596;5.624;2023-04-05T07:25:13;102268.28;;;2.05;72.00
59043;BME280;44826;51.596;5.624;2023-04-05T07:27:38;102265.06;;;2.12;72.04
59043;BME280;44826;51.596;5.624;2023-04-05T07:30:04;102266.22;;;2.20;72.44
59043;BME280;44826;51.596;5.624;2023-04-05T07:32:30;102265.56;;;2.27;72.82
59043;BME280;44826;51.596;5.624;2023-04-05T07:34:55;102264.03;;;2.33;72.18
59043;BME280;44826;51.596;5.624;2023-04-05T07:37:20;102264.22;;;2.39;73.11
59043;BME280;44826;51.596;5.624;2023-04-05T07:39:46;102261.81;;;2.45;72.71
59043;BME280;44826;51.596;5.624;2023-04-05T07:42:11;102263.78;;;2.52;71.91
59043;BME280;44826;51.596;5.624;2023-04-05T07:44:36;102268.25;;;2.60;71.26
59043;BME280;44826;51.596;5.624;2023-04-05T07:47:01;102272.78;;;2.67;71.15
59043;BME280;44826;51.596;5.624;2023-04-05T07:49:28;102272.97;;;2.73;70.09
59043;BME280;44826;51.596;5.624;2023-04-05T07:51:55;102267.97;;;2.79;69.68
59043;BME280;44826;51.596;5.624;2023-04-05T07:54:20;102262.22;;;2.86;71.37
59043;BME280;44826;51.596;5.624;2023-04-05T07:56:46;102266.66;;;2.92;70.67
59043;BME280;44826;51.596;5.624;2023-04-05T07:59:13;102261.69;;;2.98;71.01
59043;BME280;44826;51.596;5.624;2023-04-05T08:01:38;102264.44;;;3.04;71.11
59043;BME280;44826;51.596;5.624;2023-04-05T08:04:04;102260.38;;;3.13;71.31
59043;BME280;44826;51.596;5.624;2023-04-05T08:06:29;102262.25;;;3.18;71.00
59043;BME280;44826;51.596;5.624;2023-04-05T08:08:55;102261.56;;;3.26;70.77
59043;BME280;44826;51.596;5.624;2023-04-05T08:11:20;102253.22;;;3.33;71.68
59043;BME280;44826;51.596;5.624;2023-04-05T08:13:45;102260.28;;;3.40;70.28
59043;BME280;44826;51.596;5.624;2023-04-05T08:16:11;102257.91;;;3.48;70.68
59043;BME280;44826;51.596;5.624;2023-04-05T08:18:37;102253.78;;;3.55;70.49
59043;BME280;44826;51.596;5.624;2023-04-05T08:21:02;102260.06;;;3.64;68.92
59043;BME280;44826;51.596;5.624;2023-04-05T08:23:27;102261.94;;;3.72;67.79
59043;BME280;44826;51.596;5.624;2023-04-05T08:25:53;102258.66;;;3.77;68.24
59043;BME280;44826;51.596;5.624;2023-04-05T08:28:18;102263.13;;;3.85;66.94
59043;BME280;44826;51.596;5.624;2023-04-05T08:30:44;102252.09;;;3.90;67.61
59043;BME280;44826;51.596;5.624;2023-04-05T08:33:11;102258.34;;;4.00;65.56
59043;BME280;44826;51.596;5.624;2023-04-05T08:35:37;102262.00;;;4.08;65.62
59043;BME280;44826;51.596;5.624;2023-04-05T08:38:03;102259.63;;;4.16;65.54
59043;BME280;44826;51.596;5.624;2023-04-05T08:40:45;102253.81;;;4.25;66.58
59043;BME280;44826;51.596;5.624;2023-04-05T08:46:08;102245.59;;;4.42;64.45
59043;BME280;44826;51.596;5.624;2023-04-05T08:48:34;102244.03;;;4.48;61.14
59043;BME280;44826;51.596;5.624;2023-04-05T08:51:05;102247.59;;;4.55;62.08
59043;BME280;44826;51.596;5.624;2023-04-05T08:53:33;102241.69;;;4.61;59.77
59043;BME280;44826;51.596;5.624;2023-04-05T08:55:59;102249.53;;;4.65;60.65
59043;BME280;44826;51.596;5.624;2023-04-05T08:58:25;102243.63;;;4.71;59.66
59043;BME280;44826;51.596;5.624;2023-04-05T09:00:51;102249.81;;;4.78;59.46
59043;BME280;44826;51.596;5.624;2023-04-05T09:03:20;102243.91;;;4.83;58.66
59043;BME280;44826;51.596;5.624;2023-04-05T09:05:49;102244.91;;;4.90;57.73
59043;BME280;44826;51.596;5.624;2023-04-05T09:08:15;102247.59;;;4.96;56.68
59043;BME280;44826;51.596;5.624;2023-04-05T09:10:41;102245.16;;;5.03;56.43
59043;BME280;44826;51.596;5.624;2023-04-05T09:13:06;102244.38;;;5.08;58.46
59043;BME280;44826;51.596;5.624;2023-04-05T09:15:34;102237.63;;;5.15;57.69
59043;BME280;44826;51.596;5.624;2023-04-05T09:18:00;102240.34;;;5.21;56.29
59043;BME280;44826;51.596;5.624;2023-04-05T09:20:25;102240.47;;;5.27;55.22
59043;BME280;44826;51.596;5.624;2023-04-05T09:22:51;102231.97;;;5.33;55.37
59043;BME280;44826;51.596;5.624;2023-04-05T09:25:45;102230.31;;;5.38;58.16
59043;BME280;44826;51.596;5.624;2023-04-05T09:28:11;102233.03;;;5.44;56.78
59043;BME280;44826;51.596;5.624;2023-04-05T09:30:44;102227.09;;;5.50;57.52
59043;BME280;44826;51.596;5.624;2023-04-05T09:33:14;102228.03;;;5.54;54.88
59043;BME280;44826;51.596;5.624;2023-04-05T09:35:40;102222.19;;;5.62;55.75
59043;BME280;44826;51.596;5.624;2023-04-05T09:38:06;102224.88;;;5.70;55.36
59043;BME280;44826;51.596;5.624;2023-04-05T09:40:47;102219.78;;;5.75;55.33
59043;BME280;44826;51.596;5.624;2023-04-05T09:43:39;102224.16;;;5.79;55.09
59043;BME280;44826;51.596;5.624;2023-04-05T09:46:05;102221.63;;;5.82;53.58
59043;BME280;44826;51.596;5.624;2023-04-05T09:48:47;102221.72;;;5.88;55.06
59043;BME280;44826;51.596;5.624;2023-04-05T09:51:14;102220.94;;;5.92;54.28
59043;BME280;44826;51.596;5.624;2023-04-05T09:54:02;102219.31;;;5.98;55.90
59043;BME280;44826;51.596;5.624;2023-04-05T09:56:30;102217.66;;;6.03;52.55
59043;BME280;44826;51.596;5.624;2023-04-05T09:59:15;102218.63;;;6.08;55.00
59043;BME280;44826;51.596;5.624;2023-04-05T10:01:44;102208.38;;;6.14;54.38
59043;BME280;44826;51.596;5.624;2023-04-05T10:04:09;102209.31;;;6.19;51.55
59043;BME280;44826;51.596;5.624;2023-04-05T10:06:39;102214.53;;;6.22;50.73
59043;BME280;44826;51.596;5.624;2023-04-05T10:09:06;102208.50;;;6.25;52.30
59043;BME280;44826;51.596;5.624;2023-04-05T10:11:32;102203.44;;;6.31;52.27
59043;BME280;44826;51.596;5.624;2023-04-05T10:14:03;102205.22;;;6.35;52.04
59043;BME280;44826;51.596;5.624;2023-04-05T10:16:32;102205.28;;;6.38;51.77
59043;BME280;44826;51.596;5.624;2023-04-05T10:18:58;102196.69;;;6.43;51.43
59043;BME280;44826;51.596;5.624;2023-04-05T10:21:28;102190.72;;;6.45;50.50
59043;BME280;44826;51.596;5.624;2023-04-05T10:24:11;102189.03;;;6.47;51.19
59043;BME280;44826;51.596;5.624;2023-04-05T10:27:00;102185.56;;;6.47;48.65
59043;BME280;44826;51.596;5.624;2023-04-05T10:29:39;102188.19;;;6.50;50.78
59043;BME280;44826;51.596;5.624;2023-04-05T10:32:16;102180.47;;;6.55;50.60
59043;BME280;44826;51.596;5.624;2023-04-05T10:34:50;102184.91;;;6.62;49.82
59043;BME280;44826;51.596;5.624;2023-04-05T10:40:07;102181.50;;;6.67;50.32
59043;BME280;44826;51.596;5.624;2023-04-05T10:42:45;102180.66;;;6.70;51.79
59043;BME280;44826;51.596;5.624;2023-04-05T10:45:17;102179.88;;;6.74;50.57
59043;BME280;44826;51.596;5.624;2023-04-05T10:48:06;102175.66;;;6.82;53.19
59043;BME280;44826;51.596;5.624;2023-04-05T10:50:40;102171.44;;;6.91;51.99
59043;BME280;44826;51.596;5.624;2023-04-05T10:53:06;102174.09;;;6.97;50.31
59043;BME280;44826;51.596;5.624;2023-04-05T10:55:33;102174.13;;;7.02;50.96
59043;BME280;44826;51.596;5.624;2023-04-05T10:57:59;102169.88;;;7.08;50.56
59043;BME280;44826;51.596;5.624;2023-04-05T11:00:25;102169.97;;;7.14;50.13
59043;BME280;44826;51.596;5.624;2023-04-05T11:02:54;102161.38;;;7.20;49.05
59043;BME280;44826;51.596;5.624;2023-04-05T11:05:34;102155.41;;;7.26;50.08
59043;BME280;44826;51.596;5.624;2023-04-05T11:08:06;102151.13;;;7.33;49.38
59043;BME280;44826;51.596;5.624;2023-04-05T11:10:36;102152.06;;;7.39;49.26
59043;BME280;44826;51.596;5.624;2023-04-05T11:13:03;102153.84;;;7.47;47.87
59043;BME280;44826;51.596;5.624;2023-04-05T11:15:30;102154.75;;;7.50;48.24
59043;BME280;44826;51.596;5.624;2023-04-05T11:20:40;102143.59;;;7.59;46.20
59043;BME280;44826;51.596;5.624;2023-04-05T11:23:06;102139.34;;;7.69;48.15
59043;BME280;44826;51.596;5.624;2023-04-05T11:25:37;102131.69;;;7.83;48.86
59043;BME280;44826;51.596;5.624;2023-04-05T11:28:04;102137.78;;;7.96;48.29
59043;BME280;44826;51.596;5.624;2023-04-05T11:30:49;102138.72;;;8.09;49.92
59043;BME280;44826;51.596;5.624;2023-04-05T11:36:28;102134.56;;;8.35;48.11
59043;BME280;44826;51.596;5.624;2023-04-05T11:41:48;102131.22;;;8.61;45.59
59043;BME280;44826;51.596;5.624;2023-04-05T11:44:17;102120.00;;;8.69;43.57
59043;BME280;44826;51.596;5.624;2023-04-05T11:46:45;102107.91;;;8.75;45.27
59043;BME280;44826;51.596;5.624;2023-04-05T11:49:11;102110.53;;;8.88;43.13
59043;BME280;44826;51.596;5.624;2023-04-05T11:51:39;102109.69;;;9.03;44.78
59043;BME280;44826;51.596;5.624;2023-04-05T11:54:06;102102.78;;;9.17;43.08
59043;BME280;44826;51.596;5.624;2023-04-05T11:56:32;102099.31;;;9.37;44.16
59043;BME280;44826;51.596;5.624;2023-04-05T11:58:57;102097.56;;;9.54;42.60
59043;BME280;44826;51.596;5.624;2023-04-05T12:01:23;102097.56;;;9.64;42.76
59043;BME280;44826;51.596;5.624;2023-04-05T12:03:52;102089.75;;;9.68;44.80
59043;BME280;44826;51.596;5.624;2023-04-05T12:06:21;102090.63;;;9.72;43.56
59043;BME280;44826;51.596;5.624;2023-04-05T12:08:47;102093.19;;;9.75;42.66
59043;BME280;44826;51.596;5.624;2023-04-05T12:11:25;102092.31;;;9.87;43.19
59043;BME280;44826;51.596;5.624;2023-04-05T12:13:59;102083.59;;;9.99;43.51
59043;BME280;44826;51.596;5.624;2023-04-05T12:16:25;102081.88;;;10.04;40.72
59043;BME280;44826;51.596;5.624;2023-04-05T12:18:56;102078.41;;;10.02;40.56
59043;BME280;44826;51.596;5.624;2023-04-05T12:21:22;102077.53;;;10.05;41.44
59043;BME280;44826;51.596;5.624;2023-04-05T12:23:48;102068.84;;;10.12;40.78
59043;BME280;44826;51.596;5.624;2023-04-05T12:26:14;102067.94;;;10.17;39.88
59043;BME280;44826;51.596;5.624;2023-04-05T12:28:50;102066.16;;;10.26;43.98
59043;BME280;44826;51.596;5.624;2023-04-05T12:31:17;102067.00;;;10.34;41.28
59043;BME280;44826;51.596;5.624;2023-04-05T12:33:42;102068.75;;;10.41;41.54
59043;BME280;44826;51.596;5.624;2023-04-05T12:36:08;102061.72;;;10.51;41.06
59043;BME280;44826;51.596;5.624;2023-04-05T12:38:36;102062.56;;;10.58;40.21
59043;BME280;44826;51.596;5.624;2023-04-05T12:41:02;102071.16;;;10.68;40.33
59043;BME280;44826;51.596;5.624;2023-04-05T12:43:40;102060.72;;;10.75;41.65
59043;BME280;44826;51.596;5.624;2023-04-05T12:46:41;102053.72;;;10.84;43.81
59043;BME280;44826;51.596;5.624;2023-04-05T12:49:11;102056.28;;;10.90;39.29
59043;BME280;44826;51.596;5.624;2023-04-05T12:51:46;102049.25;;;10.98;39.79
59043;BME280;44826;51.596;5.624;2023-04-05T12:54:13;102050.94;;;11.04;38.67
59043;BME280;44826;51.596;5.624;2023-04-05T12:56:39;102037.94;;;11.02;38.38
59043;BME280;44826;51.596;5.624;2023-04-05T12:59:05;102042.28;;;11.02;39.06
59043;BME280;44826;51.596;5.624;2023-04-05T13:01:33;102040.50;;;11.08;39.22
59043;BME280;44826;51.596;5.624;2023-04-05T13:03:59;102032.56;;;11.24;38.35
59043;BME280;44826;51.596;5.624;2023-04-05T13:06:31;102031.50;;;11.44;38.17
59043;BME280;44826;51.596;5.624;2023-04-05T13:08:56;102027.00;;;11.58;38.00
59043;BME280;44826;51.596;5.624;2023-04-05T13:11:22;102025.97;;;11.75;38.53
59043;BME280;44826;51.596;5.624;2023-04-05T13:13:48;102021.50;;;11.83;36.69
59043;BME280;44826;51.596;5.624;2023-04-05T13:16:13;102022.22;;;11.96;39.96
59043;BME280;44826;51.596;5.624;2023-04-05T13:18:38;102022.94;;;12.12;37.87
59043;BME280;44826;51.596;5.624;2023-04-05T13:21:04;102020.09;;;12.27;35.83
59043;BME280;44826;51.596;5.624;2023-04-05T13:23:33;102014.78;;;12.34;36.38
59043;BME280;44826;51.596;5.624;2023-04-05T13:25:58;102008.56;;;12.44;37.73